sensor_id;sensor_type;location;lat;lon;timestamp;P1;durP1;ratioP1;P2;durP2;ratioP2
18520;SDS011;9390;51.244;6.982;2022-12-17T00:02:45;134.32;;;34.83;;
18520;SDS011;9390;51.244;6.982;2022-12-17T00:05:34;143.30;;;33.45;;
18520;SDS011;9390;51.244;6.982;2022-12-17T00:08:24;132.50;;;31.08;;
18520;SDS011;9390;51.244;6.982;2022-12-17T00:11:13;176.30;;;32.55;;
18520;SDS011;9390;51.244;6.982;2022-12-17T00:14:02;151.70;;;31.60;;
18520;SDS011;9390;51.244;6.982;2022-12-17T00:16:51;134.40;;;33.25;;
18520;SDS011;9390;51.244;6.982;2022-12-17T00:19:40;164.75;;;33.38;;
18520;SDS011;9390;51.244;6.982;2022-12-17T00:22:29;115.20;;;30.33;;
18520;SDS011;9390;51.244;6.982;2022-12-17T00:25:19;150.05;;;31.77;;
18520;SDS011;9390;51.244;6.982;2022-12-17T00:28:09;111.57;;;31.38;;
18520;SDS011;9390;51.244;6.982;2022-12-17T00:30:58;127.10;;;31.05;;
18520;SDS011;9390;51.244;6.982;2022-12-17T00:33:47;116.40;;;31.45;;
18520;SDS011;9390;51.244;6.982;2022-12-17T00:36:41;151.70;;;31.23;;
18520;SDS011;9390;51.244;6.982;2022-12-17T00:39:29;160.43;;;31.13;;
18520;SDS011;9390;51.244;6.982;2022-12-17T00:42:20;143.60;;;32.78;;
18520;SDS011;9390;51.244;6.982;2022-12-17T00:45:09;155.25;;;30.50;;
18520;SDS011;9390;51.244;6.982;2022-12-17T00:47:58;120.45;;;31.73;;
18520;SDS011;9390;51.244;6.982;2022-12-17T00:50:47;183.25;;;31.20;;
18520;SDS011;9390;51.244;6.982;2022-12-17T00:53:36;154.95;;;33.60;;
18520;SDS011;9390;51.244;6.982;2022-12-17T00:56:25;143.85;;;31.52;;
18520;SDS011;9390;51.244;6.982;2022-12-17T00:59:15;130.63;;;29.40;;
18520;SDS011;9390;51.244;6.982;2022-12-17T01:02:04;134.25;;;28.15;;
18520;SDS011;9390;51.244;6.982;2022-12-17T01:04:52;131.02;;;30.48;;
18520;SDS011;9390;51.244;6.982;2022-12-17T01:07:42;132.73;;;28.90;;
18520;SDS011;9390;51.244;6.982;2022-12-17T01:10:31;152.45;;;30.45;;
18520;SDS011;9390;51.244;6.982;2022-12-17T01:13:20;148.50;;;30.40;;
18520;SDS011;9390;51.244;6.982;2022-12-17T01:16:11;144.23;;;29.92;;
18520;SDS011;9390;51.244;6.982;2022-12-17T01:19:01;149.65;;;29.63;;
18520;SDS011;9390;51.244;6.982;2022-12-17T01:21:50;129.60;;;31.23;;
18520;SDS011;9390;51.244;6.982;2022-12-17T01:24:39;158.90;;;31.00;;
18520;SDS011;9390;51.244;6.982;2022-12-17T01:27:28;161.60;;;30.33;;
18520;SDS011;9390;51.244;6.982;2022-12-17T01:30:17;158.27;;;28.67;;
18520;SDS011;9390;51.244;6.982;2022-12-17T01:33:08;160.95;;;32.90;;
18520;SDS011;9390;51.244;6.982;2022-12-17T01:35:57;140.95;;;28.20;;
18520;SDS011;9390;51.244;6.982;2022-12-17T01:38:46;147.75;;;30.50;;
18520;SDS011;9390;51.244;6.982;2022-12-17T01:41:35;129.00;;;28.65;;
18520;SDS011;9390;51.244;6.982;2022-12-17T01:44:39;155.07;;;33.50;;
18520;SDS011;9390;51.244;6.982;2022-12-17T01:47:33;161.23;;;29.88;;
18520;SDS011;9390;51.244;6.982;2022-12-17T01:50:27;137.32;;;28.55;;
18520;SDS011;9390;51.244;6.982;2022-12-17T01:53:20;130.10;;;28.27;;
18520;SDS011;9390;51.244;6.982;2022-12-17T01:56:11;132.65;;;29.25;;
18520;SDS011;9390;51.244;6.982;2022-12-17T01:59:15;122.60;;;26.80;;
18520;SDS011;9390;51.244;6.982;2022-12-17T02:02:07;136.10;;;28.33;;
18520;SDS011;9390;51.244;6.982;2022-12-17T02:04:53;126.65;;;27.35;;
18520;SDS011;9390;51.244;6.982;2022-12-17T02:07:46;132.15;;;28.98;;
18520;SDS011;9390;51.244;6.982;2022-12-17T02:10:40;135.40;;;28.73;;
18520;SDS011;9390;51.244;6.982;2022-12-17T02:13:34;139.20;;;26.27;;
18520;SDS011;9390;51.244;6.982;2022-12-17T02:16:26;117.93;;;25.27;;
18520;SDS011;9390;51.244;6.982;2022-12-17T02:19:22;128.15;;;27.05;;
18520;SDS011;9390;51.244;6.982;2022-12-17T02:22:18;109.40;;;26.80;;
18520;SDS011;9390;51.244;6.982;2022-12-17T02:25:14;121.15;;;27.40;;
18520;SDS011;9390;51.244;6.982;2022-12-17T02:28:07;121.07;;;25.63;;
18520;SDS011;9390;51.244;6.982;2022-12-17T02:30:55;124.53;;;26.63;;
18520;SDS011;9390;51.244;6.982;2022-12-17T02:33:45;100.75;;;24.30;;
18520;SDS011;9390;51.244;6.982;2022-12-17T02:36:34;101.95;;;25.42;;
18520;SDS011;9390;51.244;6.982;2022-12-17T02:39:23;97.65;;;23.30;;
18520;SDS011;9390;51.244;6.982;2022-12-17T02:42:13;111.97;;;24.75;;
18520;SDS011;9390;51.244;6.982;2022-12-17T02:45:04;99.15;;;23.77;;
18520;SDS011;9390;51.244;6.982;2022-12-17T02:47:54;101.55;;;23.50;;
18520;SDS011;9390;51.244;6.982;2022-12-17T02:50:43;114.38;;;24.40;;
18520;SDS011;9390;51.244;6.982;2022-12-17T02:53:33;97.65;;;23.95;;
18520;SDS011;9390;51.244;6.982;2022-12-17T02:56:23;92.90;;;22.88;;
18520;SDS011;9390;51.244;6.982;2022-12-17T02:59:11;96.55;;;23.38;;
18520;SDS011;9390;51.244;6.982;2022-12-17T03:02:02;114.85;;;25.95;;
18520;SDS011;9390;51.244;6.982;2022-12-17T03:04:51;113.97;;;22.63;;
18520;SDS011;9390;51.244;6.982;2022-12-17T03:07:40;104.32;;;25.45;;
18520;SDS011;9390;51.244;6.982;2022-12-17T03:10:29;100.47;;;24.98;;
18520;SDS011;9390;51.244;6.982;2022-12-17T03:13:21;104.53;;;24.63;;
18520;SDS011;9390;51.244;6.982;2022-12-17T03:16:25;89.05;;;22.02;;
18520;SDS011;9390;51.244;6.982;2022-12-17T03:19:15;96.90;;;25.75;;
18520;SDS011;9390;51.244;6.982;2022-12-17T03:24:56;95.82;;;21.88;;
18520;SDS011;9390;51.244;6.982;2022-12-17T03:27:45;110.40;;;23.38;;
18520;SDS011;9390;51.244;6.982;2022-12-17T03:30:34;97.28;;;24.38;;
18520;SDS011;9390;51.244;6.982;2022-12-17T03:33:23;113.03;;;25.27;;
18520;SDS011;9390;51.244;6.982;2022-12-17T03:36:13;110.22;;;24.30;;
18520;SDS011;9390;51.244;6.982;2022-12-17T03:39:02;94.07;;;21.70;;
18520;SDS011;9390;51.244;6.982;2022-12-17T03:41:52;83.13;;;22.27;;
18520;SDS011;9390;51.244;6.982;2022-12-17T03:44:41;101.93;;;24.02;;
18520;SDS011;9390;51.244;6.982;2022-12-17T03:47:29;98.95;;;23.35;;
18520;SDS011;9390;51.244;6.982;2022-12-17T03:50:18;105.22;;;23.10;;
18520;SDS011;9390;51.244;6.982;2022-12-17T03:53:08;107.85;;;23.33;;
18520;SDS011;9390;51.244;6.982;2022-12-17T03:55:57;97.25;;;23.73;;
18520;SDS011;9390;51.244;6.982;2022-12-17T03:58:46;102.50;;;22.27;;
18520;SDS011;9390;51.244;6.982;2022-12-17T04:01:35;100.15;;;23.52;;
18520;SDS011;9390;51.244;6.982;2022-12-17T04:04:24;95.63;;;22.35;;
18520;SDS011;9390;51.244;6.982;2022-12-17T04:07:13;116.35;;;24.70;;
18520;SDS011;9390;51.244;6.982;2022-12-17T04:10:03;101.93;;;23.63;;
18520;SDS011;9390;51.244;6.982;2022-12-17T04:12:53;92.75;;;22.90;;
18520;SDS011;9390;51.244;6.982;2022-12-17T04:15:42;95.03;;;23.20;;
18520;SDS011;9390;51.244;6.982;2022-12-17T04:18:31;103.32;;;22.17;;
18520;SDS011;9390;51.244;6.982;2022-12-17T04:21:20;110.35;;;23.80;;
18520;SDS011;9390;51.244;6.982;2022-12-17T04:24:09;109.15;;;22.95;;
18520;SDS011;9390;51.244;6.982;2022-12-17T04:26:59;98.50;;;21.40;;
18520;SDS011;9390;51.244;6.982;2022-12-17T04:29:49;85.63;;;20.60;;
18520;SDS011;9390;51.244;6.982;2022-12-17T04:32:46;98.57;;;22.63;;
18520;SDS011;9390;51.244;6.982;2022-12-17T04:35:35;105.57;;;23.23;;
18520;SDS011;9390;51.244;6.982;2022-12-17T04:38:24;88.68;;;21.38;;
18520;SDS011;9390;51.244;6.982;2022-12-17T04:41:13;84.90;;;22.55;;
18520;SDS011;9390;51.244;6.982;2022-12-17T04:44:03;74.35;;;18.73;;
18520;SDS011;9390;51.244;6.982;2022-12-17T04:46:52;81.28;;;22.02;;
18520;SDS011;9390;51.244;6.982;2022-12-17T04:49:41;88.55;;;21.23;;
18520;SDS011;9390;51.244;6.982;2022-12-17T04:52:30;86.85;;;22.77;;
18520;SDS011;9390;51.244;6.982;2022-12-17T04:55:18;86.10;;;21.50;;
18520;SDS011;9390;51.244;6.982;2022-12-17T04:58:05;95.40;;;22.23;;
18520;SDS011;9390;51.244;6.982;2022-12-17T05:00:56;73.90;;;21.48;;
18520;SDS011;9390;51.244;6.982;2022-12-17T05:03:45;91.38;;;21.55;;
18520;SDS011;9390;51.244;6.982;2022-12-17T05:06:34;78.38;;;20.73;;
18520;SDS011;9390;51.244;6.982;2022-12-17T05:09:22;91.97;;;22.33;;
18520;SDS011;9390;51.244;6.982;2022-12-17T05:12:12;93.97;;;20.75;;
18520;SDS011;9390;51.244;6.982;2022-12-17T05:15:01;81.05;;;21.95;;
18520;SDS011;9390;51.244;6.982;2022-12-17T05:17:51;104.20;;;23.58;;
18520;SDS011;9390;51.244;6.982;2022-12-17T05:20:40;103.10;;;24.83;;
18520;SDS011;9390;51.244;6.982;2022-12-17T05:23:26;88.63;;;24.58;;
18520;SDS011;9390;51.244;6.982;2022-12-17T05:26:16;93.38;;;22.65;;
18520;SDS011;9390;51.244;6.982;2022-12-17T05:29:07;95.22;;;23.02;;
18520;SDS011;9390;51.244;6.982;2022-12-17T05:31:56;93.38;;;22.15;;
18520;SDS011;9390;51.244;6.982;2022-12-17T05:34:47;79.80;;;22.33;;
18520;SDS011;9390;51.244;6.982;2022-12-17T05:37:36;92.88;;;23.55;;
18520;SDS011;9390;51.244;6.982;2022-12-17T05:40:24;81.78;;;20.52;;
18520;SDS011;9390;51.244;6.982;2022-12-17T05:43:13;77.13;;;21.42;;
18520;SDS011;9390;51.244;6.982;2022-12-17T05:46:02;64.47;;;20.83;;
18520;SDS011;9390;51.244;6.982;2022-12-17T05:48:52;79.93;;;22.38;;
18520;SDS011;9390;51.244;6.982;2022-12-17T05:51:42;86.32;;;21.67;;
18520;SDS011;9390;51.244;6.982;2022-12-17T05:54:31;87.57;;;22.25;;
18520;SDS011;9390;51.244;6.982;2022-12-17T05:57:20;77.50;;;21.08;;
18520;SDS011;9390;51.244;6.982;2022-12-17T06:00:09;93.20;;;22.90;;
18520;SDS011;9390;51.244;6.982;2022-12-17T06:02:58;73.70;;;20.48;;
18520;SDS011;9390;51.244;6.982;2022-12-17T06:05:52;88.07;;;22.77;;
18520;SDS011;9390;51.244;6.982;2022-12-17T06:08:42;80.07;;;19.83;;
18520;SDS011;9390;51.244;6.982;2022-12-17T06:11:31;83.15;;;22.20;;
18520;SDS011;9390;51.244;6.982;2022-12-17T06:14:20;86.82;;;21.42;;
18520;SDS011;9390;51.244;6.982;2022-12-17T06:17:09;70.18;;;20.73;;
18520;SDS011;9390;51.244;6.982;2022-12-17T06:19:58;60.45;;;19.58;;
18520;SDS011;9390;51.244;6.982;2022-12-17T06:22:57;78.43;;;20.05;;
18520;SDS011;9390;51.244;6.982;2022-12-17T06:25:48;79.70;;;20.40;;
18520;SDS011;9390;51.244;6.982;2022-12-17T06:28:37;77.72;;;20.45;;
18520;SDS011;9390;51.244;6.982;2022-12-17T06:31:26;72.68;;;20.48;;
18520;SDS011;9390;51.244;6.982;2022-12-17T06:34:15;65.50;;;19.95;;
18520;SDS011;9390;51.244;6.982;2022-12-17T06:37:04;77.63;;;19.23;;
18520;SDS011;9390;51.244;6.982;2022-12-17T06:39:52;67.45;;;19.73;;
18520;SDS011;9390;51.244;6.982;2022-12-17T06:42:51;78.75;;;19.15;;
18520;SDS011;9390;51.244;6.982;2022-12-17T06:45:41;68.85;;;17.80;;
18520;SDS011;9390;51.244;6.982;2022-12-17T06:48:30;68.32;;;19.27;;
18520;SDS011;9390;51.244;6.982;2022-12-17T06:51:18;67.38;;;19.83;;
18520;SDS011;9390;51.244;6.982;2022-12-17T06:54:07;54.65;;;17.63;;
18520;SDS011;9390;51.244;6.982;2022-12-17T06:56:56;59.63;;;16.80;;
18520;SDS011;9390;51.244;6.982;2022-12-17T06:59:46;75.88;;;19.58;;
18520;SDS011;9390;51.244;6.982;2022-12-17T07:02:35;71.50;;;19.15;;
18520;SDS011;9390;51.244;6.982;2022-12-17T07:05:24;72.03;;;18.10;;
18520;SDS011;9390;51.244;6.982;2022-12-17T07:08:13;65.03;;;17.63;;
18520;SDS011;9390;51.244;6.982;2022-12-17T07:11:03;72.57;;;17.42;;
18520;SDS011;9390;51.244;6.982;2022-12-17T07:13:51;62.83;;;17.73;;
18520;SDS011;9390;51.244;6.982;2022-12-17T07:16:41;64.43;;;17.25;;
18520;SDS011;9390;51.244;6.982;2022-12-17T07:19:30;64.68;;;16.90;;
18520;SDS011;9390;51.244;6.982;2022-12-17T07:22:19;65.10;;;16.02;;
18520;SDS011;9390;51.244;6.982;2022-12-17T07:25:08;50.08;;;15.18;;
18520;SDS011;9390;51.244;6.982;2022-12-17T07:27:57;58.20;;;16.23;;
18520;SDS011;9390;51.244;6.982;2022-12-17T07:30:54;45.35;;;15.45;;
18520;SDS011;9390;51.244;6.982;2022-12-17T07:33:45;50.37;;;15.30;;
18520;SDS011;9390;51.244;6.982;2022-12-17T07:36:34;63.97;;;15.57;;
18520;SDS011;9390;51.244;6.982;2022-12-17T07:39:23;60.85;;;15.57;;
18520;SDS011;9390;51.244;6.982;2022-12-17T07:42:11;53.53;;;17.27;;
18520;SDS011;9390;51.244;6.982;2022-12-17T07:45:01;56.92;;;15.55;;
18520;SDS011;9390;51.244;6.982;2022-12-17T07:47:50;46.40;;;15.23;;
18520;SDS011;9390;51.244;6.982;2022-12-17T07:50:46;49.53;;;14.68;;
18520;SDS011;9390;51.244;6.982;2022-12-17T07:53:50;45.08;;;16.08;;
18520;SDS011;9390;51.244;6.982;2022-12-17T07:56:39;46.23;;;14.87;;
18520;SDS011;9390;51.244;6.982;2022-12-17T07:59:29;43.27;;;14.67;;
18520;SDS011;9390;51.244;6.982;2022-12-17T08:02:18;41.72;;;15.07;;
18520;SDS011;9390;51.244;6.982;2022-12-17T08:05:07;44.17;;;15.37;;
18520;SDS011;9390;51.244;6.982;2022-12-17T08:08:05;47.67;;;14.32;;
18520;SDS011;9390;51.244;6.982;2022-12-17T08:10:55;50.70;;;14.77;;
18520;SDS011;9390;51.244;6.982;2022-12-17T08:13:44;45.90;;;15.27;;
18520;SDS011;9390;51.244;6.982;2022-12-17T08:16:29;55.65;;;15.45;;
18520;SDS011;9390;51.244;6.982;2022-12-17T08:19:18;46.80;;;15.73;;
18520;SDS011;9390;51.244;6.982;2022-12-17T08:22:07;43.77;;;14.30;;
18520;SDS011;9390;51.244;6.982;2022-12-17T08:24:58;45.85;;;16.20;;
18520;SDS011;9390;51.244;6.982;2022-12-17T08:27:47;56.00;;;17.70;;
18520;SDS011;9390;51.244;6.982;2022-12-17T08:30:36;44.83;;;16.45;;
18520;SDS011;9390;51.244;6.982;2022-12-17T08:33:25;49.87;;;15.87;;
18520;SDS011;9390;51.244;6.982;2022-12-17T08:36:14;50.03;;;16.00;;
18520;SDS011;9390;51.244;6.982;2022-12-17T08:39:02;43.90;;;16.37;;
18520;SDS011;9390;51.244;6.982;2022-12-17T08:41:53;46.20;;;16.07;;
18520;SDS011;9390;51.244;6.982;2022-12-17T08:44:42;47.53;;;15.07;;
18520;SDS011;9390;51.244;6.982;2022-12-17T08:47:31;53.43;;;16.53;;
18520;SDS011;9390;51.244;6.982;2022-12-17T08:50:20;47.27;;;16.50;;
18520;SDS011;9390;51.244;6.982;2022-12-17T08:53:10;44.20;;;16.67;;
18520;SDS011;9390;51.244;6.982;2022-12-17T08:55:58;47.20;;;16.60;;
18520;SDS011;9390;51.244;6.982;2022-12-17T08:58:51;46.77;;;16.10;;
18520;SDS011;9390;51.244;6.982;2022-12-17T09:01:40;38.00;;;15.77;;
18520;SDS011;9390;51.244;6.982;2022-12-17T09:04:29;47.17;;;16.20;;
18520;SDS011;9390;51.244;6.982;2022-12-17T09:07:17;51.13;;;17.37;;
18520;SDS011;9390;51.244;6.982;2022-12-17T09:10:07;56.93;;;20.43;;
18520;SDS011;9390;51.244;6.982;2022-12-17T09:12:59;61.43;;;20.67;;
18520;SDS011;9390;51.244;6.982;2022-12-17T09:15:53;61.28;;;20.50;;
18520;SDS011;9390;51.244;6.982;2022-12-17T09:18:43;55.60;;;20.60;;
18520;SDS011;9390;51.244;6.982;2022-12-17T09:21:32;65.20;;;23.63;;
18520;SDS011;9390;51.244;6.982;2022-12-17T09:24:21;60.37;;;21.67;;
18520;SDS011;9390;51.244;6.982;2022-12-17T09:27:11;58.80;;;21.60;;
18520;SDS011;9390;51.244;6.982;2022-12-17T09:30:00;59.53;;;21.73;;
18520;SDS011;9390;51.244;6.982;2022-12-17T09:32:50;58.43;;;21.70;;
18520;SDS011;9390;51.244;6.982;2022-12-17T09:35:39;56.40;;;22.92;;
18520;SDS011;9390;51.244;6.982;2022-12-17T09:38:28;61.47;;;23.23;;
18520;SDS011;9390;51.244;6.982;2022-12-17T09:41:19;59.87;;;22.03;;
18520;SDS011;9390;51.244;6.982;2022-12-17T09:44:15;54.30;;;23.53;;
18520;SDS011;9390;51.244;6.982;2022-12-17T09:47:11;62.27;;;24.10;;
18520;SDS011;9390;51.244;6.982;2022-12-17T09:50:11;64.10;;;24.57;;
18520;SDS011;9390;51.244;6.982;2022-12-17T09:53:01;60.38;;;23.70;;
18520;SDS011;9390;51.244;6.982;2022-12-17T09:58:53;61.20;;;24.40;;
18520;SDS011;9390;51.244;6.982;2022-12-17T10:01:42;64.30;;;23.67;;
18520;SDS011;9390;51.244;6.982;2022-12-17T10:04:32;58.35;;;24.67;;
18520;SDS011;9390;51.244;6.982;2022-12-17T10:07:24;74.07;;;27.37;;
18520;SDS011;9390;51.244;6.982;2022-12-17T10:10:17;59.08;;;25.02;;
18520;SDS011;9390;51.244;6.982;2022-12-17T10:13:09;68.83;;;27.37;;
18520;SDS011;9390;51.244;6.982;2022-12-17T10:15:58;64.10;;;26.03;;
18520;SDS011;9390;51.244;6.982;2022-12-17T10:18:48;70.70;;;25.40;;
18520;SDS011;9390;51.244;6.982;2022-12-17T10:21:37;71.63;;;26.23;;
18520;SDS011;9390;51.244;6.982;2022-12-17T10:24:28;66.10;;;26.23;;
18520;SDS011;9390;51.244;6.982;2022-12-17T10:27:18;56.97;;;24.20;;
18520;SDS011;9390;51.244;6.982;2022-12-17T10:30:13;67.88;;;24.15;;
18520;SDS011;9390;51.244;6.982;2022-12-17T10:33:03;63.75;;;25.15;;
18520;SDS011;9390;51.244;6.982;2022-12-17T10:35:53;61.92;;;25.05;;
18520;SDS011;9390;51.244;6.982;2022-12-17T10:38:42;50.30;;;24.10;;
18520;SDS011;9390;51.244;6.982;2022-12-17T10:41:34;56.42;;;24.00;;
18520;SDS011;9390;51.244;6.982;2022-12-17T10:44:24;63.70;;;25.20;;
18520;SDS011;9390;51.244;6.982;2022-12-17T10:47:15;60.17;;;25.73;;
18520;SDS011;9390;51.244;6.982;2022-12-17T10:50:08;66.45;;;26.92;;
18520;SDS011;9390;51.244;6.982;2022-12-17T10:52:58;57.70;;;23.40;;
18520;SDS011;9390;51.244;6.982;2022-12-17T10:55:49;60.73;;;25.17;;
18520;SDS011;9390;51.244;6.982;2022-12-17T10:58:43;66.50;;;24.17;;
18520;SDS011;9390;51.244;6.982;2022-12-17T11:01:33;63.33;;;24.67;;
18520;SDS011;9390;51.244;6.982;2022-12-17T11:04:24;59.97;;;23.95;;
18520;SDS011;9390;51.244;6.982;2022-12-17T11:07:16;53.03;;;23.80;;
18520;SDS011;9390;51.244;6.982;2022-12-17T11:10:12;53.05;;;21.52;;
18520;SDS011;9390;51.244;6.982;2022-12-17T11:13:02;57.08;;;21.83;;
18520;SDS011;9390;51.244;6.982;2022-12-17T11:15:55;53.85;;;22.67;;
18520;SDS011;9390;51.244;6.982;2022-12-17T11:21:38;49.53;;;21.40;;
18520;SDS011;9390;51.244;6.982;2022-12-17T11:24:31;57.72;;;22.10;;
18520;SDS011;9390;51.244;6.982;2022-12-17T11:30:13;48.60;;;20.08;;
18520;SDS011;9390;51.244;6.982;2022-12-17T11:33:06;50.40;;;22.60;;
18520;SDS011;9390;51.244;6.982;2022-12-17T11:36:01;51.42;;;21.63;;
18520;SDS011;9390;51.244;6.982;2022-12-17T11:38:59;50.78;;;20.38;;
18520;SDS011;9390;51.244;6.982;2022-12-17T11:41:57;51.70;;;21.83;;
18520;SDS011;9390;51.244;6.982;2022-12-17T11:44:49;49.00;;;20.45;;
18520;SDS011;9390;51.244;6.982;2022-12-17T11:50:34;47.05;;;20.25;;
18520;SDS011;9390;51.244;6.982;2022-12-17T11:53:33;45.28;;;20.45;;
18520;SDS011;9390;51.244;6.982;2022-12-17T11:56:31;50.80;;;20.63;;
18520;SDS011;9390;51.244;6.982;2022-12-17T11:59:25;47.95;;;19.92;;
18520;SDS011;9390;51.244;6.982;2022-12-17T12:02:18;48.83;;;20.42;;
18520;SDS011;9390;51.244;6.982;2022-12-17T12:05:19;48.75;;;19.73;;
18520;SDS011;9390;51.244;6.982;2022-12-17T12:08:15;47.08;;;20.75;;
18520;SDS011;9390;51.244;6.982;2022-12-17T12:11:19;46.33;;;20.73;;
18520;SDS011;9390;51.244;6.982;2022-12-17T12:14:16;48.53;;;20.60;;
18520;SDS011;9390;51.244;6.982;2022-12-17T12:17:18;46.90;;;19.23;;
18520;SDS011;9390;51.244;6.982;2022-12-17T12:20:16;48.20;;;19.85;;
18520;SDS011;9390;51.244;6.982;2022-12-17T12:23:16;48.17;;;19.65;;
18520;SDS011;9390;51.244;6.982;2022-12-17T12:26:10;49.88;;;21.05;;
18520;SDS011;9390;51.244;6.982;2022-12-17T12:29:02;49.20;;;19.80;;
18520;SDS011;9390;51.244;6.982;2022-12-17T12:31:59;44.75;;;19.48;;
18520;SDS011;9390;51.244;6.982;2022-12-17T12:34:52;59.45;;;20.60;;
18520;SDS011;9390;51.244;6.982;2022-12-17T12:37:42;48.63;;;19.85;;
18520;SDS011;9390;51.244;6.982;2022-12-17T12:40:33;41.05;;;19.60;;
18520;SDS011;9390;51.244;6.982;2022-12-17T12:43:27;45.97;;;18.60;;
18520;SDS011;9390;51.244;6.982;2022-12-17T12:46:18;47.15;;;20.17;;
18520;SDS011;9390;51.244;6.982;2022-12-17T12:49:12;52.42;;;21.42;;
18520;SDS011;9390;51.244;6.982;2022-12-17T12:52:04;46.90;;;18.95;;
18520;SDS011;9390;51.244;6.982;2022-12-17T12:54:53;43.70;;;19.02;;
18520;SDS011;9390;51.244;6.982;2022-12-17T12:57:54;48.72;;;20.50;;
18520;SDS011;9390;51.244;6.982;2022-12-17T13:00:51;43.67;;;18.77;;
18520;SDS011;9390;51.244;6.982;2022-12-17T13:03:48;43.22;;;19.38;;
18520;SDS011;9390;51.244;6.982;2022-12-17T13:06:42;46.10;;;20.17;;
18520;SDS011;9390;51.244;6.982;2022-12-17T13:09:18;53.25;;;20.60;;
18520;SDS011;9390;51.244;6.982;2022-12-17T13:11:53;44.35;;;18.77;;
18520;SDS011;9390;51.244;6.982;2022-12-17T13:14:27;43.83;;;19.42;;
18520;SDS011;9390;51.244;6.982;2022-12-17T13:17:00;45.33;;;19.85;;
18520;SDS011;9390;51.244;6.982;2022-12-17T13:19:35;51.70;;;20.50;;
18520;SDS011;9390;51.244;6.982;2022-12-17T13:22:08;53.38;;;21.52;;
18520;SDS011;9390;51.244;6.982;2022-12-17T13:27:26;50.35;;;20.23;;
18520;SDS011;9390;51.244;6.982;2022-12-17T13:30:14;52.47;;;20.52;;
18520;SDS011;9390;51.244;6.982;2022-12-17T13:32:53;48.28;;;19.88;;
18520;SDS011;9390;51.244;6.982;2022-12-17T13:35:35;55.40;;;20.88;;
18520;SDS011;9390;51.244;6.982;2022-12-17T13:38:12;48.92;;;21.55;;
18520;SDS011;9390;51.244;6.982;2022-12-17T13:40:54;47.53;;;20.35;;
18520;SDS011;9390;51.244;6.982;2022-12-17T13:43:32;49.40;;;20.45;;
18520;SDS011;9390;51.244;6.982;2022-12-17T13:46:05;52.45;;;20.90;;
18520;SDS011;9390;51.244;6.982;2022-12-17T13:48:37;52.63;;;21.95;;
18520;SDS011;9390;51.244;6.982;2022-12-17T13:51:16;47.83;;;20.83;;
18520;SDS011;9390;51.244;6.982;2022-12-17T13:53:50;48.90;;;20.27;;
18520;SDS011;9390;51.244;6.982;2022-12-17T13:58:55;45.00;;;19.38;;
18520;SDS011;9390;51.244;6.982;2022-12-17T14:01:29;47.30;;;18.83;;
18520;SDS011;9390;51.244;6.982;2022-12-17T14:04:01;49.63;;;20.70;;
18520;SDS011;9390;51.244;6.982;2022-12-17T14:06:33;52.65;;;20.15;;
18520;SDS011;9390;51.244;6.982;2022-12-17T14:09:06;47.45;;;20.58;;
18520;SDS011;9390;51.244;6.982;2022-12-17T14:11:44;48.42;;;19.98;;
18520;SDS011;9390;51.244;6.982;2022-12-17T14:14:34;42.90;;;19.15;;
18520;SDS011;9390;51.244;6.982;2022-12-17T14:17:15;47.50;;;20.67;;
18520;SDS011;9390;51.244;6.982;2022-12-17T14:19:50;43.28;;;19.17;;
18520;SDS011;9390;51.244;6.982;2022-12-17T14:22:27;42.25;;;17.30;;
18520;SDS011;9390;51.244;6.982;2022-12-17T14:25:02;39.35;;;18.20;;
18520;SDS011;9390;51.244;6.982;2022-12-17T14:27:35;45.10;;;18.10;;
18520;SDS011;9390;51.244;6.982;2022-12-17T14:30:18;40.67;;;16.70;;
18520;SDS011;9390;51.244;6.982;2022-12-17T14:32:53;39.20;;;17.02;;
18520;SDS011;9390;51.244;6.982;2022-12-17T14:35:25;35.28;;;15.65;;
18520;SDS011;9390;51.244;6.982;2022-12-17T14:37:58;40.20;;;16.80;;
18520;SDS011;9390;51.244;6.982;2022-12-17T14:40:29;42.88;;;17.15;;
18520;SDS011;9390;51.244;6.982;2022-12-17T14:43:00;36.22;;;16.85;;
18520;SDS011;9390;51.244;6.982;2022-12-17T14:45:32;34.97;;;16.20;;
18520;SDS011;9390;51.244;6.982;2022-12-17T14:48:25;37.75;;;16.65;;
18520;SDS011;9390;51.244;6.982;2022-12-17T14:51:21;43.00;;;18.83;;
18520;SDS011;9390;51.244;6.982;2022-12-17T14:54:03;38.67;;;16.50;;
18520;SDS011;9390;51.244;6.982;2022-12-17T14:56:35;38.60;;;17.42;;
18520;SDS011;9390;51.244;6.982;2022-12-17T14:59:20;37.17;;;15.65;;
18520;SDS011;9390;51.244;6.982;2022-12-17T15:01:52;34.95;;;16.45;;
18520;SDS011;9390;51.244;6.982;2022-12-17T15:04:26;33.47;;;16.13;;
18520;SDS011;9390;51.244;6.982;2022-12-17T15:06:57;41.90;;;17.55;;
18520;SDS011;9390;51.244;6.982;2022-12-17T15:09:31;37.38;;;15.90;;
18520;SDS011;9390;51.244;6.982;2022-12-17T15:12:05;34.92;;;16.35;;
18520;SDS011;9390;51.244;6.982;2022-12-17T15:14:37;40.72;;;16.60;;
18520;SDS011;9390;51.244;6.982;2022-12-17T15:17:08;50.67;;;20.65;;
18520;SDS011;9390;51.244;6.982;2022-12-17T15:19:41;46.33;;;19.33;;
18520;SDS011;9390;51.244;6.982;2022-12-17T15:22:13;43.85;;;17.95;;
18520;SDS011;9390;51.244;6.982;2022-12-17T15:24:46;44.33;;;18.05;;
18520;SDS011;9390;51.244;6.982;2022-12-17T15:27:17;41.35;;;18.70;;
18520;SDS011;9390;51.244;6.982;2022-12-17T15:29:49;42.40;;;17.75;;
18520;SDS011;9390;51.244;6.982;2022-12-17T15:32:22;44.28;;;17.90;;
18520;SDS011;9390;51.244;6.982;2022-12-17T15:34:55;38.63;;;16.80;;
18520;SDS011;9390;51.244;6.982;2022-12-17T15:37:26;39.28;;;17.40;;
18520;SDS011;9390;51.244;6.982;2022-12-17T15:39:58;43.75;;;18.27;;
18520;SDS011;9390;51.244;6.982;2022-12-17T15:42:29;42.65;;;17.35;;
18520;SDS011;9390;51.244;6.982;2022-12-17T15:45:18;38.97;;;16.15;;
18520;SDS011;9390;51.244;6.982;2022-12-17T15:47:50;35.53;;;16.80;;
18520;SDS011;9390;51.244;6.982;2022-12-17T15:50:22;40.05;;;17.15;;
18520;SDS011;9390;51.244;6.982;2022-12-17T15:52:54;44.03;;;18.95;;
18520;SDS011;9390;51.244;6.982;2022-12-17T15:55:25;40.65;;;18.83;;
18520;SDS011;9390;51.244;6.982;2022-12-17T15:57:57;43.33;;;17.42;;
18520;SDS011;9390;51.244;6.982;2022-12-17T16:00:28;41.13;;;18.37;;
18520;SDS011;9390;51.244;6.982;2022-12-17T16:02:59;40.30;;;17.33;;
18520;SDS011;9390;51.244;6.982;2022-12-17T16:05:32;41.97;;;18.43;;
18520;SDS011;9390;51.244;6.982;2022-12-17T16:08:04;48.55;;;20.80;;
18520;SDS011;9390;51.244;6.982;2022-12-17T16:10:36;40.65;;;18.90;;
18520;SDS011;9390;51.244;6.982;2022-12-17T16:13:08;42.78;;;20.45;;
18520;SDS011;9390;51.244;6.982;2022-12-17T16:15:39;45.10;;;19.25;;
18520;SDS011;9390;51.244;6.982;2022-12-17T16:18:11;43.25;;;18.63;;
18520;SDS011;9390;51.244;6.982;2022-12-17T16:20:43;41.80;;;17.97;;
18520;SDS011;9390;51.244;6.982;2022-12-17T16:23:15;50.03;;;22.23;;
18520;SDS011;9390;51.244;6.982;2022-12-17T16:25:53;48.70;;;22.13;;
18520;SDS011;9390;51.244;6.982;2022-12-17T16:28:26;55.42;;;24.42;;
18520;SDS011;9390;51.244;6.982;2022-12-17T16:30:58;51.50;;;22.50;;
18520;SDS011;9390;51.244;6.982;2022-12-17T16:33:30;48.55;;;23.48;;
18520;SDS011;9390;51.244;6.982;2022-12-17T16:36:04;52.50;;;23.73;;
18520;SDS011;9390;51.244;6.982;2022-12-17T16:38:40;47.95;;;21.83;;
18520;SDS011;9390;51.244;6.982;2022-12-17T16:41:13;54.83;;;23.70;;
18520;SDS011;9390;51.244;6.982;2022-12-17T16:43:45;54.10;;;22.97;;
18520;SDS011;9390;51.244;6.982;2022-12-17T16:46:23;51.17;;;22.47;;
18520;SDS011;9390;51.244;6.982;2022-12-17T16:48:57;49.13;;;23.10;;